createdAt,value
2018-05-19T00:01:50.196Z,12.58
2018-05-19T00:04:16.112Z,12.58
2018-05-19T00:06:42.092Z,12.51
2018-05-19T00:09:08.061Z,12.43
2018-05-19T00:11:33.939Z,12.28
2018-05-19T00:14:03.441Z,12.34
2018-05-19T00:16:29.427Z,12.31
2018-05-19T00:18:57.274Z,12.26
2018-05-19T00:21:23.240Z,12.29
2018-05-19T00:23:52.936Z,12.29
2018-05-19T00:26:18.964Z,12.33
2018-05-19T00:28:46.928Z,12.25
2018-05-19T00:31:12.832Z,12.24
2018-05-19T00:33:42.513Z,12.24
2018-05-19T00:36:08.482Z,12.20
2018-05-19T00:38:36.327Z,12.19
2018-05-19T00:41:02.277Z,12.05
2018-05-19T00:43:28.167Z,11.98
2018-05-19T00:45:54.297Z,12.02
2018-05-19T00:48:20.215Z,11.99
2018-05-19T00:50:47.275Z,12.03
2018-05-19T00:53:13.214Z,12.10
2018-05-19T00:55:43.441Z,12.12
2018-05-19T00:58:09.504Z,12.16
2018-05-19T01:00:37.033Z,12.22
2018-05-19T01:03:02.990Z,12.25
2018-05-19T01:05:31.998Z,12.23
2018-05-19T01:07:57.963Z,12.18
2018-05-19T01:10:27.539Z,12.19
2018-05-19T01:12:53.511Z,12.12
2018-05-19T01:15:21.301Z,11.89
2018-05-19T01:17:47.222Z,11.87
2018-05-19T01:20:13.224Z,11.85
2018-05-19T01:22:39.122Z,11.69
2018-05-19T01:25:05.033Z,11.60
2018-05-19T01:27:32.408Z,11.68
2018-05-19T01:29:58.366Z,11.74
2018-05-19T01:32:27.408Z,11.77
2018-05-19T01:34:53.558Z,11.74
2018-05-19T01:37:22.910Z,11.73
2018-05-19T01:39:49.011Z,11.67
2018-05-19T01:42:16.776Z,11.67
2018-05-19T01:44:43.330Z,11.68
2018-05-19T01:47:12.500Z,11.59
2018-05-19T01:49:42.269Z,11.61
2018-05-19T01:52:08.272Z,11.67
2018-05-19T01:54:34.430Z,11.62
2018-05-19T01:57:00.669Z,11.63
2018-05-19T01:59:27.106Z,11.66
2018-05-19T02:01:53.091Z,11.72
2018-05-19T02:04:19.076Z,11.75
2018-05-19T02:06:45.086Z,11.76
2018-05-19T02:09:12.635Z,11.78
2018-05-19T02:11:38.556Z,11.69
2018-05-19T02:14:07.651Z,11.32
2018-05-19T02:16:33.737Z,11.55
2018-05-19T02:19:03.629Z,11.49
2018-05-19T02:21:29.599Z,11.41
2018-05-19T02:23:57.337Z,11.40
2018-05-19T02:26:23.327Z,11.42
2018-05-19T02:28:52.889Z,11.40
2018-05-19T02:31:18.829Z,11.38
2018-05-19T02:33:44.778Z,11.40
2018-05-19T02:36:10.675Z,11.33
2018-05-19T02:38:36.567Z,11.39
2018-05-19T02:41:02.931Z,11.39
2018-05-19T02:43:28.842Z,11.37
2018-05-19T02:45:57.695Z,11.33
2018-05-19T02:48:23.568Z,11.34
2018-05-19T02:50:53.083Z,11.32
2018-05-19T02:53:19.058Z,11.10
2018-05-19T02:55:48.358Z,11.07
2018-05-19T02:58:14.254Z,11.21
2018-05-19T03:00:43.368Z,11.20
2018-05-19T03:03:09.338Z,11.21
2018-05-19T03:05:38.673Z,11.15
2018-05-19T03:08:04.638Z,11.12
2018-05-19T03:10:30.546Z,11.12
2018-05-19T03:12:56.522Z,11.07
2018-05-19T03:15:22.439Z,11.10
2018-05-19T03:17:48.393Z,11.01
2018-05-19T03:20:14.355Z,10.98
2018-05-19T03:22:43.428Z,10.96
2018-05-19T03:25:09.440Z,10.92
2018-05-19T03:27:39.445Z,10.97
2018-05-19T03:30:05.381Z,10.94
2018-05-19T03:32:33.235Z,11.01
2018-05-19T03:34:59.182Z,11.07
2018-05-19T03:37:28.339Z,11.08
2018-05-19T03:39:54.266Z,11.10
2018-05-19T03:42:23.233Z,11.13
2018-05-19T03:44:49.167Z,11.17
2018-05-19T03:47:19.565Z,11.18
2018-05-19T03:49:45.485Z,11.14
2018-05-19T03:52:11.429Z,11.11
2018-05-19T03:54:37.347Z,11.02
2018-05-19T03:57:15.504Z,10.98
2018-05-19T03:59:53.745Z,11.10
2018-05-19T04:02:32.023Z,11.06
2018-05-19T04:04:57.932Z,11.04
2018-05-19T04:07:23.843Z,11.03
2018-05-19T04:09:49.818Z,11.05
2018-05-19T04:12:15.737Z,10.97
2018-05-19T04:14:43.014Z,11.06
2018-05-19T04:17:09.059Z,11.14
2018-05-19T04:19:34.937Z,11.05
2018-05-19T04:22:00.904Z,10.90
2018-05-19T04:24:26.818Z,10.65
2018-05-19T04:26:52.753Z,10.71
2018-05-19T04:29:18.652Z,10.77
2018-05-19T04:31:44.547Z,10.83
2018-05-19T04:34:10.442Z,10.96
2018-05-19T04:36:36.414Z,11.12
2018-05-19T04:39:02.461Z,11.16
2018-05-19T04:41:28.363Z,11.13
2018-05-19T04:43:54.280Z,11.28
2018-05-19T04:46:20.223Z,11.34
2018-05-19T04:48:46.118Z,11.31
2018-05-19T04:51:12.107Z,11.23
2018-05-19T04:53:37.959Z,11.01
2018-05-19T04:56:04.738Z,11.12
2018-05-19T04:58:30.716Z,11.06
2018-05-19T05:00:56.685Z,10.99
2018-05-19T05:03:22.772Z,11.04
2018-05-19T05:05:48.695Z,11.13
2018-05-19T05:08:14.634Z,11.17
2018-05-19T05:10:40.531Z,11.21
2018-05-19T05:13:06.467Z,11.10
2018-05-19T05:15:32.417Z,11.14
2018-05-19T05:17:58.306Z,11.09
2018-05-19T05:20:24.213Z,11.08
2018-05-19T05:22:50.154Z,11.23
2018-05-19T05:25:16.094Z,11.37
2018-05-19T05:27:43.046Z,11.57
2018-05-19T05:30:08.991Z,11.69
2018-05-19T05:32:37.881Z,11.92
2018-05-19T05:35:03.758Z,12.06
2018-05-19T05:37:29.690Z,12.00
2018-05-19T05:39:56.197Z,12.19
2018-05-19T05:42:22.121Z,12.31
2018-05-19T05:44:51.247Z,12.39
2018-05-19T05:47:18.509Z,12.49
2018-05-19T05:49:44.442Z,12.65
2018-05-19T05:52:10.423Z,12.58
2018-05-19T05:54:39.349Z,12.68
2018-05-19T05:57:05.319Z,12.63
2018-05-19T05:59:35.038Z,12.81
2018-05-19T06:02:00.993Z,12.74
2018-05-19T06:04:30.035Z,12.63
2018-05-19T06:06:55.983Z,12.50
2018-05-19T06:09:23.676Z,12.42
2018-05-19T06:11:49.628Z,12.70
2018-05-19T06:14:15.559Z,12.98
2018-05-19T06:16:41.472Z,13.10
2018-05-19T06:19:07.421Z,13.22
2018-05-19T06:21:36.979Z,13.32
2018-05-19T06:24:02.873Z,13.20
2018-05-19T06:26:29.533Z,13.21
2018-05-19T06:28:55.430Z,13.40
2018-05-19T06:31:24.270Z,13.51
2018-05-19T06:33:50.199Z,13.70
2018-05-19T06:36:19.101Z,13.77
2018-05-19T06:38:45.098Z,13.82
2018-05-19T06:41:15.775Z,14.11
2018-05-19T06:43:41.723Z,14.24
2018-05-19T06:46:08.767Z,14.47
2018-05-19T06:48:34.674Z,14.52
2018-05-19T06:51:00.616Z,14.81
2018-05-19T06:53:26.495Z,14.78
2018-05-19T06:55:52.455Z,15.05
2018-05-19T06:58:20.100Z,15.47
2018-05-19T07:00:46.042Z,15.84
2018-05-19T07:03:14.751Z,15.87
2018-05-19T07:05:40.689Z,15.66
2018-05-19T07:08:09.741Z,15.69
2018-05-19T07:10:35.619Z,15.68
2018-05-19T07:13:05.452Z,15.72
2018-05-19T07:15:31.378Z,15.78
2018-05-19T07:18:01.227Z,16.00
2018-05-19T07:20:27.143Z,15.99
2018-05-19T07:22:54.728Z,16.12
2018-05-19T07:25:20.653Z,16.31
2018-05-19T07:27:46.666Z,16.29
2018-05-19T07:30:12.590Z,16.36
2018-05-19T07:32:38.479Z,16.30
2018-05-19T07:35:06.019Z,16.35
2018-05-19T07:37:31.950Z,16.63
2018-05-19T07:40:01.922Z,17.02
2018-05-19T07:42:27.871Z,17.18
2018-05-19T07:44:55.572Z,16.98
2018-05-19T07:47:21.513Z,16.81
2018-05-19T07:49:51.525Z,16.86
2018-05-19T07:52:17.487Z,16.82
2018-05-19T07:54:44.371Z,16.62
2018-05-19T07:57:10.309Z,16.60
2018-05-19T07:59:40.268Z,16.44
2018-05-19T08:02:06.226Z,16.76
2018-05-19T08:04:32.151Z,16.98
2018-05-19T08:06:58.097Z,17.30
2018-05-19T08:09:24.009Z,17.77
2018-05-19T08:11:51.368Z,17.77
2018-05-19T08:14:17.285Z,17.85
2018-05-19T08:16:47.186Z,18.31
2018-05-19T08:19:13.119Z,18.74
2018-05-19T08:21:41.046Z,18.79
2018-05-19T08:24:07.067Z,18.95
2018-05-19T08:26:35.122Z,19.25
2018-05-19T08:29:01.087Z,19.62
2018-05-19T08:31:30.623Z,19.41
2018-05-19T08:33:56.922Z,19.37
2018-05-19T08:36:24.421Z,19.43
2018-05-19T08:38:50.349Z,19.52
2018-05-19T08:41:16.318Z,19.78
2018-05-19T08:43:42.254Z,19.99
2018-05-19T08:46:08.400Z,19.74
2018-05-19T08:48:37.439Z,19.86
2018-05-19T08:51:03.379Z,20.07
2018-05-19T08:53:31.275Z,20.32
2018-05-19T08:55:57.192Z,20.29
2018-05-19T08:58:25.952Z,20.04
2018-05-19T09:00:51.895Z,20.04
2018-05-19T09:03:20.676Z,20.28
2018-05-19T09:05:46.673Z,20.42
2018-05-19T09:08:15.855Z,20.80
2018-05-19T09:10:41.782Z,20.92
2018-05-19T09:13:10.853Z,21.01
2018-05-19T09:15:36.760Z,20.93
2018-05-19T09:18:02.704Z,20.83
2018-05-19T09:20:28.646Z,21.28
2018-05-19T09:22:54.621Z,21.33
2018-05-19T09:28:12.957Z,21.23
2018-05-19T09:30:38.889Z,21.20
2018-05-19T09:33:04.810Z,21.48
2018-05-19T09:35:30.714Z,20.70
2018-05-19T09:37:56.644Z,21.08
2018-05-19T09:40:22.599Z,21.74
2018-05-19T09:42:48.571Z,22.21
2018-05-19T09:45:14.517Z,22.06
2018-05-19T09:47:40.549Z,22.28
2018-05-19T09:50:06.463Z,22.35
2018-05-19T09:52:32.417Z,22.42
2018-05-19T09:54:58.288Z,22.13
2018-05-19T09:57:24.208Z,22.28
2018-05-19T09:59:50.181Z,22.29
2018-05-19T10:02:16.118Z,22.49
2018-05-19T10:04:42.046Z,21.98
2018-05-19T10:07:08.022Z,21.65
2018-05-19T10:09:33.982Z,21.66
2018-05-19T10:11:59.927Z,22.33
2018-05-19T10:14:25.879Z,21.75
2018-05-19T10:16:51.770Z,21.59
2018-05-19T10:19:17.831Z,22.49
2018-05-19T10:21:45.734Z,22.93
2018-05-19T10:24:12.026Z,22.78
2018-05-19T10:26:41.619Z,23.29
2018-05-19T10:29:07.548Z,23.73
2018-05-19T10:31:33.494Z,24.09
2018-05-19T10:34:05.165Z,24.32
2018-05-19T10:36:31.081Z,24.71
2018-05-19T10:38:57.018Z,24.89
2018-05-19T10:41:23.000Z,24.75
2018-05-19T10:43:52.187Z,24.42
2018-05-19T10:46:18.111Z,24.70
2018-05-19T10:48:43.997Z,24.41
2018-05-19T10:51:09.946Z,23.68
2018-05-19T10:53:37.177Z,23.95
2018-05-19T10:56:03.145Z,23.26
2018-05-19T10:58:31.137Z,23.90
2018-05-19T11:00:57.095Z,22.46
2018-05-19T11:03:26.058Z,22.22
2018-05-19T11:05:51.972Z,22.63
2018-05-19T11:08:17.912Z,23.58
2018-05-19T11:10:43.853Z,23.98
2018-05-19T11:13:09.753Z,24.01
2018-05-19T11:15:37.596Z,23.57
2018-05-19T11:18:03.513Z,23.42
2018-05-19T11:20:33.312Z,22.16
2018-05-19T11:22:59.241Z,22.98
2018-05-19T11:25:28.338Z,23.86
2018-05-19T11:27:56.359Z,24.49
2018-05-19T11:30:22.420Z,24.46
2018-05-19T11:32:48.312Z,24.80
2018-05-19T11:35:17.787Z,25.13
2018-05-19T11:37:43.721Z,25.25
2018-05-19T11:40:11.543Z,25.39
2018-05-19T11:42:37.495Z,24.76
2018-05-19T11:45:03.439Z,24.77
2018-05-19T11:47:29.375Z,25.33
2018-05-19T11:49:57.936Z,25.79
2018-05-19T11:52:24.446Z,25.40
2018-05-19T11:55:04.549Z,25.60
2018-05-19T11:57:30.465Z,25.06
2018-05-19T11:59:56.404Z,25.58
2018-05-19T12:02:22.397Z,26.26
2018-05-19T12:04:48.366Z,25.93
2018-05-19T12:07:14.288Z,25.87
2018-05-19T12:09:40.226Z,25.96
2018-05-19T12:12:06.385Z,26.32
2018-05-19T12:14:32.318Z,26.38
2018-05-19T12:16:58.222Z,26.64
2018-05-19T12:19:24.997Z,25.85
2018-05-19T12:21:50.872Z,25.61
2018-05-19T12:24:16.846Z,25.77
2018-05-19T12:26:42.834Z,25.95
2018-05-19T12:29:08.759Z,26.30
2018-05-19T12:31:34.758Z,26.44
2018-05-19T12:34:04.005Z,25.73
2018-05-19T12:36:29.943Z,26.09
2018-05-19T12:38:57.605Z,26.00
2018-05-19T12:41:23.676Z,25.32
2018-05-19T12:43:53.119Z,25.16
2018-05-19T12:46:19.051Z,25.31
2018-05-19T12:48:48.264Z,25.83
2018-05-19T12:51:14.172Z,26.06
2018-05-19T12:53:47.856Z,26.11
2018-05-19T12:56:24.073Z,26.21
2018-05-19T12:58:49.988Z,26.50
2018-05-19T13:01:15.981Z,26.69
2018-05-19T13:03:41.915Z,26.34
2018-05-19T13:06:07.848Z,26.25
2018-05-19T13:08:33.796Z,26.44
2018-05-19T13:10:59.789Z,26.36
2018-05-19T13:13:25.732Z,26.17
2018-05-19T13:15:51.712Z,26.36
2018-05-19T13:18:17.817Z,26.14
2018-05-19T13:20:43.776Z,25.79
2018-05-19T13:23:09.755Z,25.64
2018-05-19T13:25:36.729Z,25.19
2018-05-19T13:28:02.591Z,25.43
2018-05-19T13:30:28.627Z,25.97
2018-05-19T13:32:54.558Z,26.48
2018-05-19T13:35:21.226Z,26.35
2018-05-19T13:37:47.128Z,26.70
2018-05-19T13:40:13.039Z,26.95
2018-05-19T13:42:38.951Z,27.09
2018-05-19T13:45:05.799Z,27.41
2018-05-19T13:47:35.127Z,27.25
2018-05-19T13:50:01.091Z,27.14
2018-05-19T13:52:28.838Z,27.02
2018-05-19T13:54:54.762Z,27.05
2018-05-19T13:57:24.940Z,27.53
2018-05-19T13:59:51.317Z,27.60
2018-05-19T14:02:18.206Z,27.70
2018-05-19T14:04:44.153Z,27.63
2018-05-19T14:07:18.715Z,27.50
2018-05-19T14:09:44.682Z,27.63
2018-05-19T14:12:11.091Z,27.20
2018-05-19T14:14:36.955Z,26.57
2018-05-19T14:17:02.853Z,26.47
2018-05-19T14:19:28.806Z,25.74
2018-05-19T14:21:58.446Z,25.77
2018-05-19T14:24:28.186Z,25.43
2018-05-19T14:27:00.508Z,25.29
2018-05-19T14:29:26.409Z,25.02
2018-05-19T14:31:58.060Z,25.25
2018-05-19T14:34:34.116Z,24.85
2018-05-19T14:37:00.781Z,24.74
2018-05-19T14:39:26.714Z,24.82
2018-05-19T14:41:52.845Z,25.04
2018-05-19T14:44:21.071Z,25.09
2018-05-19T14:46:49.304Z,25.01
2018-05-19T14:49:15.296Z,24.98
2018-05-19T14:51:41.192Z,24.83
2018-05-19T14:54:07.074Z,24.41
2018-05-19T14:56:33.023Z,23.92
2018-05-19T14:58:58.943Z,24.20
2018-05-19T15:01:24.984Z,24.20
2018-05-19T15:03:50.974Z,24.27
2018-05-19T15:06:16.979Z,24.38
2018-05-19T15:08:42.922Z,24.34
2018-05-19T15:11:08.901Z,23.82
2018-05-19T15:13:35.961Z,23.57
2018-05-19T15:16:01.974Z,23.55
2018-05-19T15:18:27.905Z,23.74
2018-05-19T15:20:53.906Z,23.84
2018-05-19T15:23:19.945Z,23.73
2018-05-19T15:25:45.796Z,23.63
2018-05-19T15:28:11.791Z,23.44
2018-05-19T15:30:38.172Z,23.45
2018-05-19T15:33:04.999Z,23.16
2018-05-19T15:35:31.026Z,23.02
2018-05-19T15:37:56.968Z,23.06
2018-05-19T15:40:22.910Z,23.11
2018-05-19T15:42:48.860Z,23.05
2018-05-19T15:45:14.803Z,23.05
2018-05-19T15:47:40.838Z,23.17
2018-05-19T15:50:06.787Z,23.26
2018-05-19T15:52:33.818Z,23.03
2018-05-19T15:54:59.729Z,22.97
2018-05-19T15:57:29.555Z,23.03
2018-05-19T15:59:59.626Z,22.90
2018-05-19T16:02:27.527Z,22.80
2018-05-19T16:04:53.513Z,22.79
2018-05-19T16:07:19.433Z,22.73
2018-05-19T16:09:45.387Z,22.62
2018-05-19T16:12:11.319Z,22.61
2018-05-19T16:14:37.253Z,22.62
2018-05-19T16:17:03.236Z,22.57
2018-05-19T16:19:29.263Z,22.53
2018-05-19T16:21:56.160Z,22.54
2018-05-19T16:24:25.624Z,22.58
2018-05-19T16:26:52.879Z,22.37
2018-05-19T16:29:19.090Z,22.34
2018-05-19T16:31:45.013Z,22.24
2018-05-19T16:34:15.124Z,22.27
2018-05-19T16:36:42.035Z,22.21
2018-05-19T16:39:09.705Z,22.27
2018-05-19T16:41:35.629Z,22.21
2018-05-19T16:44:02.608Z,22.24
2018-05-19T16:46:28.568Z,22.16
2018-05-19T16:48:55.512Z,22.30
2018-05-19T16:51:21.966Z,22.33
2018-05-19T16:53:48.000Z,22.25
2018-05-19T16:56:15.584Z,22.21
2018-05-19T16:58:41.545Z,22.29
2018-05-19T17:01:10.366Z,22.11
2018-05-19T17:03:36.420Z,22.29
2018-05-19T17:06:06.013Z,22.27
2018-05-19T17:08:31.955Z,22.22
2018-05-19T17:11:02.763Z,22.27
2018-05-19T17:13:28.707Z,22.05
2018-05-19T17:15:54.683Z,21.99
2018-05-19T17:18:20.665Z,21.96
2018-05-19T17:20:46.616Z,21.75
2018-05-19T17:23:12.569Z,21.72
2018-05-19T17:25:38.497Z,21.80
2018-05-19T17:28:05.793Z,21.97
2018-05-19T17:30:31.752Z,22.10
2018-05-19T17:33:01.250Z,22.24
2018-05-19T17:35:27.305Z,22.29
2018-05-19T17:37:54.890Z,22.16
2018-05-19T17:40:20.840Z,22.06
2018-05-19T17:42:49.675Z,22.06
2018-05-19T17:45:16.690Z,21.93
2018-05-19T17:47:45.748Z,22.00
2018-05-19T17:50:11.645Z,21.84
2018-05-19T17:52:37.596Z,21.76
2018-05-19T17:55:03.519Z,21.44
2018-05-19T17:57:29.438Z,21.38
2018-05-19T17:59:56.287Z,21.39
2018-05-19T18:02:22.221Z,21.22
2018-05-19T18:04:52.107Z,21.07
2018-05-19T18:07:17.982Z,20.97
2018-05-19T18:09:45.862Z,20.79
2018-05-19T18:12:11.944Z,20.77
2018-05-19T18:14:42.314Z,20.83
2018-05-19T18:17:08.320Z,20.73
2018-05-19T18:19:35.570Z,20.68
2018-05-19T18:22:01.569Z,20.61
2018-05-19T18:24:31.195Z,20.53
2018-05-19T18:26:57.176Z,20.33
2018-05-19T18:29:23.151Z,20.29
2018-05-19T18:31:50.221Z,20.32
2018-05-19T18:34:16.184Z,20.25
2018-05-19T18:36:42.107Z,20.17
2018-05-19T18:39:08.005Z,19.96
2018-05-19T18:41:37.923Z,19.68
2018-05-19T18:44:03.920Z,19.58
2018-05-19T18:46:30.736Z,19.58
2018-05-19T18:48:57.560Z,19.55
2018-05-19T18:51:32.750Z,19.54
2018-05-19T18:53:58.708Z,19.32
2018-05-19T18:56:24.748Z,19.31
2018-05-19T18:58:50.727Z,19.24
2018-05-19T19:01:16.637Z,19.13
2018-05-19T19:03:42.579Z,19.08
2018-05-19T19:06:08.519Z,19.02
2018-05-19T19:08:34.460Z,18.90
2018-05-19T19:11:00.837Z,18.82
2018-05-19T19:13:26.862Z,18.76
2018-05-19T19:15:53.585Z,18.68
2018-05-19T19:18:21.545Z,18.63
2018-05-19T19:20:47.393Z,18.59
2018-05-19T19:23:19.367Z,18.18
2018-05-19T19:25:45.289Z,18.33
2018-05-19T19:28:11.208Z,18.23
2018-05-19T19:30:37.158Z,18.20
2018-05-19T19:33:06.897Z,18.15
2018-05-19T19:35:32.871Z,18.03
2018-05-19T19:38:01.847Z,17.99
2018-05-19T19:40:27.787Z,17.92
2018-05-19T19:42:53.750Z,17.87
2018-05-19T19:45:19.701Z,17.87
2018-05-19T19:47:55.853Z,17.91
2018-05-19T19:50:21.893Z,17.93
2018-05-19T19:52:47.769Z,18.00
2018-05-19T19:55:13.685Z,17.99
2018-05-19T19:57:39.631Z,17.79
2018-05-19T20:00:05.706Z,17.31
2018-05-19T20:02:32.283Z,16.86
2018-05-19T20:04:58.188Z,16.59
2018-05-19T20:07:24.156Z,16.55
2018-05-19T20:09:50.704Z,16.50
2018-05-19T20:12:16.649Z,16.34
2018-05-19T20:14:46.565Z,16.21
2018-05-19T20:17:12.589Z,16.02
2018-05-19T20:19:38.550Z,16.06
2018-05-19T20:22:04.491Z,15.89
2018-05-19T20:30:16.384Z,15.85
2018-05-19T20:32:42.284Z,15.78
2018-05-19T20:35:08.307Z,15.77
2018-05-19T20:37:34.281Z,15.77
2018-05-19T20:40:00.327Z,15.65
2018-05-19T20:42:26.272Z,15.54
2018-05-19T20:44:52.191Z,15.38
2018-05-19T20:47:18.146Z,15.38
2018-05-19T20:49:44.113Z,15.31
2018-05-19T20:52:10.072Z,15.18
2018-05-19T20:54:36.024Z,15.17
2018-05-19T20:57:02.214Z,15.19
2018-05-19T20:59:28.121Z,15.19
2018-05-19T21:01:54.449Z,15.11
2018-05-19T21:04:21.526Z,15.15
2018-05-19T21:06:47.452Z,15.20
2018-05-19T21:09:13.404Z,15.18
2018-05-19T21:11:40.823Z,15.17
2018-05-19T21:14:06.798Z,15.02
2018-05-19T21:16:32.761Z,15.08
2018-05-19T21:18:58.723Z,15.15
2018-05-19T21:21:24.688Z,15.17
2018-05-19T21:23:50.649Z,15.24
2018-05-19T21:26:16.654Z,15.30
2018-05-19T21:28:42.595Z,15.35
2018-05-19T21:31:08.567Z,15.49
2018-05-19T21:33:34.513Z,15.39
2018-05-19T21:36:00.435Z,15.47
2018-05-19T21:38:26.385Z,15.46
2018-05-19T21:40:53.751Z,15.42
2018-05-19T21:43:19.732Z,15.37
2018-05-19T21:45:45.578Z,15.38
2018-05-19T22:01:25.976Z,15.47
2018-05-19T22:03:52.388Z,15.29
2018-05-19T22:06:24.337Z,15.14
2018-05-19T22:08:51.030Z,15.09
2018-05-19T22:11:16.969Z,15.06
2018-05-19T22:13:43.039Z,15.01
2018-05-19T22:16:08.936Z,15.01
2018-05-19T22:18:34.873Z,14.96
2018-05-19T22:21:07.812Z,14.87
2018-05-19T22:23:39.359Z,14.88
2018-05-19T22:26:05.719Z,14.83
2018-05-19T22:28:35.559Z,14.72
2018-05-19T22:31:01.526Z,14.71
2018-05-19T22:33:29.437Z,14.71
2018-05-19T22:35:55.418Z,14.73
2018-05-19T22:38:23.309Z,14.66
2018-05-19T22:40:49.255Z,14.58
2018-05-19T22:43:18.111Z,14.49
2018-05-19T22:45:44.028Z,14.38
2018-05-19T22:48:13.844Z,14.26
2018-05-19T22:50:39.799Z,14.26
2018-05-19T22:53:07.759Z,14.15
2018-05-19T22:55:33.693Z,14.01
2018-05-19T22:58:02.889Z,14.07
2018-05-19T23:00:28.808Z,13.95
2018-05-19T23:02:58.573Z,13.99
2018-05-19T23:05:24.476Z,13.96
2018-05-19T23:07:50.417Z,13.93
2018-05-19T23:10:16.339Z,14.05
2018-05-19T23:12:42.258Z,14.04
2018-05-19T23:15:09.510Z,14.04
2018-05-19T23:17:35.416Z,14.04
2018-05-19T23:20:05.199Z,14.02
2018-05-19T23:22:41.400Z,13.97
2018-05-19T23:25:07.403Z,13.99
2018-05-19T23:27:33.300Z,13.98
2018-05-19T23:29:59.218Z,13.95
2018-05-19T23:32:25.151Z,13.90
2018-05-19T23:34:51.069Z,13.95
2018-05-19T23:37:17.023Z,13.93
2018-05-19T23:39:42.988Z,13.94
2018-05-19T23:42:08.859Z,13.90
2018-05-19T23:44:35.038Z,13.77
2018-05-19T23:47:00.964Z,13.65
2018-05-19T23:49:27.012Z,13.75
2018-05-19T23:51:53.933Z,13.75
2018-05-19T23:54:19.864Z,13.80
2018-05-19T23:56:49.290Z,13.75
2018-05-19T23:59:15.201Z,13.78
